sensor_id;sensor_type;location;lat;lon;timestamp;P1;durP1;ratioP1;P2;durP2;ratioP2
7181;SDS011;3632;42.724;23.298;2024-03-07T00:01:39;25.73;;;21.67;;
7181;SDS011;3632;42.724;23.298;2024-03-07T00:04:06;23.07;;;20.67;;
7181;SDS011;3632;42.724;23.298;2024-03-07T00:06:34;24.10;;;21.50;;
7181;SDS011;3632;42.724;23.298;2024-03-07T00:09:01;24.80;;;22.20;;
7181;SDS011;3632;42.724;23.298;2024-03-07T00:11:28;24.77;;;22.17;;
7181;SDS011;3632;42.724;23.298;2024-03-07T00:13:55;25.00;;;22.37;;
7181;SDS011;3632;42.724;23.298;2024-03-07T00:16:22;25.03;;;22.33;;
7181;SDS011;3632;42.724;23.298;2024-03-07T00:18:49;25.47;;;21.90;;
7181;SDS011;3632;42.724;23.298;2024-03-07T00:21:15;26.07;;;22.27;;
7181;SDS011;3632;42.724;23.298;2024-03-07T00:23:43;24.13;;;21.20;;
7181;SDS011;3632;42.724;23.298;2024-03-07T00:26:10;23.37;;;20.93;;
7181;SDS011;3632;42.724;23.298;2024-03-07T00:28:37;25.33;;;20.77;;
7181;SDS011;3632;42.724;23.298;2024-03-07T00:31:05;25.23;;;20.80;;
7181;SDS011;3632;42.724;23.298;2024-03-07T00:33:33;22.93;;;20.43;;
7181;SDS011;3632;42.724;23.298;2024-03-07T00:36:00;21.93;;;19.37;;
7181;SDS011;3632;42.724;23.298;2024-03-07T00:38:27;21.47;;;19.27;;
7181;SDS011;3632;42.724;23.298;2024-03-07T00:40:55;23.30;;;19.93;;
7181;SDS011;3632;42.724;23.298;2024-03-07T00:43:22;21.23;;;17.90;;
7181;SDS011;3632;42.724;23.298;2024-03-07T00:45:50;20.97;;;17.70;;
7181;SDS011;3632;42.724;23.298;2024-03-07T00:48:17;20.77;;;18.57;;
7181;SDS011;3632;42.724;23.298;2024-03-07T00:50:44;19.50;;;17.47;;
7181;SDS011;3632;42.724;23.298;2024-03-07T00:53:10;21.07;;;17.60;;
7181;SDS011;3632;42.724;23.298;2024-03-07T00:55:37;22.43;;;17.80;;
7181;SDS011;3632;42.724;23.298;2024-03-07T00:58:05;22.47;;;18.53;;
7181;SDS011;3632;42.724;23.298;2024-03-07T01:00:32;19.90;;;17.80;;
7181;SDS011;3632;42.724;23.298;2024-03-07T01:02:58;19.50;;;17.40;;
7181;SDS011;3632;42.724;23.298;2024-03-07T01:05:26;19.60;;;17.20;;
7181;SDS011;3632;42.724;23.298;2024-03-07T01:07:53;18.60;;;16.70;;
7181;SDS011;3632;42.724;23.298;2024-03-07T01:10:20;19.07;;;17.13;;
7181;SDS011;3632;42.724;23.298;2024-03-07T01:12:47;18.57;;;16.53;;
7181;SDS011;3632;42.724;23.298;2024-03-07T01:15:16;19.30;;;16.87;;
7181;SDS011;3632;42.724;23.298;2024-03-07T01:17:43;19.77;;;17.27;;
7181;SDS011;3632;42.724;23.298;2024-03-07T01:20:10;20.03;;;16.73;;
7181;SDS011;3632;42.724;23.298;2024-03-07T01:22:37;18.07;;;16.27;;
7181;SDS011;3632;42.724;23.298;2024-03-07T01:25:05;18.43;;;16.43;;
7181;SDS011;3632;42.724;23.298;2024-03-07T01:27:32;18.17;;;16.30;;
7181;SDS011;3632;42.724;23.298;2024-03-07T01:29:59;18.37;;;16.47;;
7181;SDS011;3632;42.724;23.298;2024-03-07T01:32:28;18.07;;;16.17;;
7181;SDS011;3632;42.724;23.298;2024-03-07T01:34:55;18.10;;;16.20;;
7181;SDS011;3632;42.724;23.298;2024-03-07T01:37:22;21.03;;;16.87;;
7181;SDS011;3632;42.724;23.298;2024-03-07T01:39:49;16.77;;;15.07;;
7181;SDS011;3632;42.724;23.298;2024-03-07T01:42:15;18.23;;;16.30;;
7181;SDS011;3632;42.724;23.298;2024-03-07T01:44:42;18.20;;;16.30;;
7181;SDS011;3632;42.724;23.298;2024-03-07T01:47:09;18.27;;;16.03;;
7181;SDS011;3632;42.724;23.298;2024-03-07T01:49:37;16.77;;;14.97;;
7181;SDS011;3632;42.724;23.298;2024-03-07T01:52:04;19.33;;;15.93;;
7181;SDS011;3632;42.724;23.298;2024-03-07T01:54:31;17.83;;;15.47;;
7181;SDS011;3632;42.724;23.298;2024-03-07T01:56:59;19.80;;;16.47;;
7181;SDS011;3632;42.724;23.298;2024-03-07T01:59:29;18.40;;;16.37;;
7181;SDS011;3632;42.724;23.298;2024-03-07T02:01:57;17.77;;;15.63;;
7181;SDS011;3632;42.724;23.298;2024-03-07T02:04:27;19.73;;;16.27;;
7181;SDS011;3632;42.724;23.298;2024-03-07T02:06:55;20.23;;;16.67;;
7181;SDS011;3632;42.724;23.298;2024-03-07T02:09:23;17.67;;;15.77;;
7181;SDS011;3632;42.724;23.298;2024-03-07T02:11:50;19.83;;;16.23;;
7181;SDS011;3632;42.724;23.298;2024-03-07T02:14:17;19.87;;;16.97;;
7181;SDS011;3632;42.724;23.298;2024-03-07T02:16:43;19.57;;;16.67;;
7181;SDS011;3632;42.724;23.298;2024-03-07T02:19:10;22.40;;;16.40;;
7181;SDS011;3632;42.724;23.298;2024-03-07T02:21:42;19.67;;;16.73;;
7181;SDS011;3632;42.724;23.298;2024-03-07T02:24:09;22.43;;;16.60;;
7181;SDS011;3632;42.724;23.298;2024-03-07T02:26:36;19.97;;;16.70;;
7181;SDS011;3632;42.724;23.298;2024-03-07T02:29:04;19.37;;;16.37;;
7181;SDS011;3632;42.724;23.298;2024-03-07T02:31:31;20.33;;;16.77;;
7181;SDS011;3632;42.724;23.298;2024-03-07T02:34:02;19.30;;;16.50;;
7181;SDS011;3632;42.724;23.298;2024-03-07T02:36:29;18.83;;;16.33;;
7181;SDS011;3632;42.724;23.298;2024-03-07T02:38:57;21.27;;;17.07;;
7181;SDS011;3632;42.724;23.298;2024-03-07T02:41:24;18.63;;;15.97;;
7181;SDS011;3632;42.724;23.298;2024-03-07T02:43:51;19.93;;;17.77;;
7181;SDS011;3632;42.724;23.298;2024-03-07T02:46:18;20.30;;;17.20;;
7181;SDS011;3632;42.724;23.298;2024-03-07T02:48:44;20.00;;;17.50;;
7181;SDS011;3632;42.724;23.298;2024-03-07T02:51:11;19.70;;;16.97;;
7181;SDS011;3632;42.724;23.298;2024-03-07T02:53:38;21.47;;;15.93;;
7181;SDS011;3632;42.724;23.298;2024-03-07T02:56:06;19.40;;;16.37;;
7181;SDS011;3632;42.724;23.298;2024-03-07T02:58:34;17.97;;;16.07;;
7181;SDS011;3632;42.724;23.298;2024-03-07T03:01:01;18.27;;;15.87;;
7181;SDS011;3632;42.724;23.298;2024-03-07T03:03:29;19.10;;;15.80;;
7181;SDS011;3632;42.724;23.298;2024-03-07T03:05:57;21.47;;;17.47;;
7181;SDS011;3632;42.724;23.298;2024-03-07T03:08:25;17.27;;;15.37;;
7181;SDS011;3632;42.724;23.298;2024-03-07T03:10:53;19.00;;;14.23;;
7181;SDS011;3632;42.724;23.298;2024-03-07T03:13:23;14.57;;;12.93;;
7181;SDS011;3632;42.724;23.298;2024-03-07T03:15:49;16.40;;;13.80;;
7181;SDS011;3632;42.724;23.298;2024-03-07T03:18:16;17.17;;;14.43;;
7181;SDS011;3632;42.724;23.298;2024-03-07T03:20:44;19.50;;;15.97;;
7181;SDS011;3632;42.724;23.298;2024-03-07T03:23:12;18.17;;;14.87;;
7181;SDS011;3632;42.724;23.298;2024-03-07T03:25:39;23.63;;;17.57;;
7181;SDS011;3632;42.724;23.298;2024-03-07T03:28:06;20.63;;;16.30;;
7181;SDS011;3632;42.724;23.298;2024-03-07T03:30:36;14.80;;;13.03;;
7181;SDS011;3632;42.724;23.298;2024-03-07T03:33:04;15.27;;;12.97;;
7181;SDS011;3632;42.724;23.298;2024-03-07T03:35:31;16.33;;;12.80;;
7181;SDS011;3632;42.724;23.298;2024-03-07T03:37:58;10.80;;;9.33;;
7181;SDS011;3632;42.724;23.298;2024-03-07T03:40:26;9.70;;;8.70;;
7181;SDS011;3632;42.724;23.298;2024-03-07T03:42:53;9.23;;;8.13;;
7181;SDS011;3632;42.724;23.298;2024-03-07T03:45:19;7.90;;;7.10;;
7181;SDS011;3632;42.724;23.298;2024-03-07T03:47:48;7.60;;;6.00;;
7181;SDS011;3632;42.724;23.298;2024-03-07T03:50:15;5.53;;;5.00;;
7181;SDS011;3632;42.724;23.298;2024-03-07T03:52:42;4.60;;;4.20;;
7181;SDS011;3632;42.724;23.298;2024-03-07T03:55:10;4.03;;;3.60;;
7181;SDS011;3632;42.724;23.298;2024-03-07T03:57:38;3.80;;;3.40;;
7181;SDS011;3632;42.724;23.298;2024-03-07T04:00:07;5.37;;;3.60;;
7181;SDS011;3632;42.724;23.298;2024-03-07T04:02:38;4.00;;;3.60;;
7181;SDS011;3632;42.724;23.298;2024-03-07T04:05:07;3.70;;;3.40;;
7181;SDS011;3632;42.724;23.298;2024-03-07T04:07:35;4.20;;;3.30;;
7181;SDS011;3632;42.724;23.298;2024-03-07T04:10:02;3.50;;;3.20;;
7181;SDS011;3632;42.724;23.298;2024-03-07T04:12:32;3.37;;;3.07;;
7181;SDS011;3632;42.724;23.298;2024-03-07T04:14:59;3.50;;;3.20;;
7181;SDS011;3632;42.724;23.298;2024-03-07T04:17:26;4.43;;;3.47;;
7181;SDS011;3632;42.724;23.298;2024-03-07T04:19:52;4.70;;;3.50;;
7181;SDS011;3632;42.724;23.298;2024-03-07T04:22:21;3.63;;;3.00;;
7181;SDS011;3632;42.724;23.298;2024-03-07T04:24:48;3.37;;;3.07;;
7181;SDS011;3632;42.724;23.298;2024-03-07T04:27:19;4.43;;;3.77;;
7181;SDS011;3632;42.724;23.298;2024-03-07T04:29:46;4.03;;;3.63;;
7181;SDS011;3632;42.724;23.298;2024-03-07T04:32:14;3.30;;;3.00;;
7181;SDS011;3632;42.724;23.298;2024-03-07T04:34:42;4.40;;;2.93;;
7181;SDS011;3632;42.724;23.298;2024-03-07T04:37:09;2.80;;;2.50;;
7181;SDS011;3632;42.724;23.298;2024-03-07T04:39:37;2.80;;;2.60;;
7181;SDS011;3632;42.724;23.298;2024-03-07T04:42:05;3.40;;;3.10;;
7181;SDS011;3632;42.724;23.298;2024-03-07T04:44:33;3.63;;;3.13;;
7181;SDS011;3632;42.724;23.298;2024-03-07T04:47:01;3.83;;;3.17;;
7181;SDS011;3632;42.724;23.298;2024-03-07T04:49:29;3.10;;;2.90;;
7181;SDS011;3632;42.724;23.298;2024-03-07T04:51:58;3.63;;;3.33;;
7181;SDS011;3632;42.724;23.298;2024-03-07T04:54:26;4.13;;;3.73;;
7181;SDS011;3632;42.724;23.298;2024-03-07T04:56:55;3.47;;;3.17;;
7181;SDS011;3632;42.724;23.298;2024-03-07T04:59:22;3.70;;;3.40;;
7181;SDS011;3632;42.724;23.298;2024-03-07T05:01:49;4.97;;;3.30;;
7181;SDS011;3632;42.724;23.298;2024-03-07T05:04:17;3.43;;;3.03;;
7181;SDS011;3632;42.724;23.298;2024-03-07T05:06:44;3.67;;;3.37;;
7181;SDS011;3632;42.724;23.298;2024-03-07T05:09:13;3.43;;;3.13;;
7181;SDS011;3632;42.724;23.298;2024-03-07T05:11:48;4.40;;;3.40;;
7181;SDS011;3632;42.724;23.298;2024-03-07T05:14:18;4.00;;;3.60;;
7181;SDS011;3632;42.724;23.298;2024-03-07T05:16:45;4.40;;;3.47;;
7181;SDS011;3632;42.724;23.298;2024-03-07T05:19:27;4.00;;;3.60;;
7181;SDS011;3632;42.724;23.298;2024-03-07T05:21:54;6.63;;;4.00;;
7181;SDS011;3632;42.724;23.298;2024-03-07T05:24:21;3.53;;;3.20;;
7181;SDS011;3632;42.724;23.298;2024-03-07T05:26:48;4.60;;;3.53;;
7181;SDS011;3632;42.724;23.298;2024-03-07T05:29:14;4.20;;;3.80;;
7181;SDS011;3632;42.724;23.298;2024-03-07T05:31:44;4.03;;;3.63;;
7181;SDS011;3632;42.724;23.298;2024-03-07T05:34:12;4.00;;;3.63;;
7181;SDS011;3632;42.724;23.298;2024-03-07T05:36:39;5.97;;;4.73;;
7181;SDS011;3632;42.724;23.298;2024-03-07T05:39:09;5.10;;;4.60;;
7181;SDS011;3632;42.724;23.298;2024-03-07T05:41:36;4.33;;;3.93;;
7181;SDS011;3632;42.724;23.298;2024-03-07T05:44:03;6.07;;;4.70;;
7181;SDS011;3632;42.724;23.298;2024-03-07T05:46:34;6.33;;;5.13;;
7181;SDS011;3632;42.724;23.298;2024-03-07T05:49:07;5.80;;;5.20;;
7181;SDS011;3632;42.724;23.298;2024-03-07T05:51:34;4.90;;;4.40;;
7181;SDS011;3632;42.724;23.298;2024-03-07T05:54:01;6.33;;;5.00;;
7181;SDS011;3632;42.724;23.298;2024-03-07T05:56:31;6.60;;;5.40;;
7181;SDS011;3632;42.724;23.298;2024-03-07T05:59:00;6.23;;;5.57;;
7181;SDS011;3632;42.724;23.298;2024-03-07T06:01:29;4.93;;;4.43;;
7181;SDS011;3632;42.724;23.298;2024-03-07T06:03:58;7.37;;;4.63;;
7181;SDS011;3632;42.724;23.298;2024-03-07T06:06:26;5.50;;;4.90;;
7181;SDS011;3632;42.724;23.298;2024-03-07T06:08:53;5.70;;;5.20;;
7181;SDS011;3632;42.724;23.298;2024-03-07T06:11:20;5.20;;;4.70;;
7181;SDS011;3632;42.724;23.298;2024-03-07T06:13:46;6.27;;;5.47;;
7181;SDS011;3632;42.724;23.298;2024-03-07T06:16:13;5.93;;;5.33;;
7181;SDS011;3632;42.724;23.298;2024-03-07T06:18:40;6.13;;;5.20;;
7181;SDS011;3632;42.724;23.298;2024-03-07T06:21:07;6.43;;;5.47;;
7181;SDS011;3632;42.724;23.298;2024-03-07T06:23:36;6.23;;;5.63;;
7181;SDS011;3632;42.724;23.298;2024-03-07T06:26:03;5.80;;;5.20;;
7181;SDS011;3632;42.724;23.298;2024-03-07T06:28:37;7.27;;;4.97;;
7181;SDS011;3632;42.724;23.298;2024-03-07T06:31:05;6.23;;;5.03;;
7181;SDS011;3632;42.724;23.298;2024-03-07T06:33:33;5.90;;;5.27;;
7181;SDS011;3632;42.724;23.298;2024-03-07T06:35:59;6.67;;;4.53;;
7181;SDS011;3632;42.724;23.298;2024-03-07T06:38:27;5.33;;;4.77;;
7181;SDS011;3632;42.724;23.298;2024-03-07T06:40:55;7.33;;;6.53;;
7181;SDS011;3632;42.724;23.298;2024-03-07T06:43:22;17.07;;;14.03;;
7181;SDS011;3632;42.724;23.298;2024-03-07T06:45:48;27.97;;;22.10;;
7181;SDS011;3632;42.724;23.298;2024-03-07T06:48:15;31.13;;;24.40;;
7181;SDS011;3632;42.724;23.298;2024-03-07T06:50:42;31.83;;;25.87;;
7181;SDS011;3632;42.724;23.298;2024-03-07T06:53:09;29.83;;;23.70;;
7181;SDS011;3632;42.724;23.298;2024-03-07T06:55:36;25.87;;;22.07;;
7181;SDS011;3632;42.724;23.298;2024-03-07T06:58:04;23.93;;;19.60;;
7181;SDS011;3632;42.724;23.298;2024-03-07T07:00:31;22.33;;;16.70;;
7181;SDS011;3632;42.724;23.298;2024-03-07T07:03:00;20.63;;;16.27;;
7181;SDS011;3632;42.724;23.298;2024-03-07T07:05:29;22.10;;;16.23;;
7181;SDS011;3632;42.724;23.298;2024-03-07T07:07:56;19.47;;;14.20;;
7181;SDS011;3632;42.724;23.298;2024-03-07T07:10:23;11.50;;;9.70;;
7181;SDS011;3632;42.724;23.298;2024-03-07T07:12:50;10.07;;;7.33;;
7181;SDS011;3632;42.724;23.298;2024-03-07T07:15:21;9.03;;;6.20;;
7181;SDS011;3632;42.724;23.298;2024-03-07T07:17:48;7.83;;;5.50;;
7181;SDS011;3632;42.724;23.298;2024-03-07T07:20:15;6.20;;;5.60;;
7181;SDS011;3632;42.724;23.298;2024-03-07T07:22:43;7.37;;;5.07;;
7181;SDS011;3632;42.724;23.298;2024-03-07T07:25:11;5.87;;;4.53;;
7181;SDS011;3632;42.724;23.298;2024-03-07T07:27:43;5.03;;;4.53;;
7181;SDS011;3632;42.724;23.298;2024-03-07T07:30:11;4.27;;;3.80;;
7181;SDS011;3632;42.724;23.298;2024-03-07T07:32:40;3.83;;;3.43;;
7181;SDS011;3632;42.724;23.298;2024-03-07T07:35:08;3.80;;;3.50;;
7181;SDS011;3632;42.724;23.298;2024-03-07T07:37:37;3.70;;;3.40;;
7181;SDS011;3632;42.724;23.298;2024-03-07T07:40:04;4.37;;;3.40;;
7181;SDS011;3632;42.724;23.298;2024-03-07T07:42:33;3.90;;;3.50;;
7181;SDS011;3632;42.724;23.298;2024-03-07T07:45:04;4.30;;;3.77;;
7181;SDS011;3632;42.724;23.298;2024-03-07T07:47:32;4.67;;;3.80;;
7181;SDS011;3632;42.724;23.298;2024-03-07T07:50:04;4.60;;;3.90;;
7181;SDS011;3632;42.724;23.298;2024-03-07T07:52:39;3.83;;;3.20;;
7181;SDS011;3632;42.724;23.298;2024-03-07T07:55:06;5.63;;;3.60;;
7181;SDS011;3632;42.724;23.298;2024-03-07T07:57:39;3.87;;;3.57;;
7181;SDS011;3632;42.724;23.298;2024-03-07T08:00:07;3.80;;;3.50;;
7181;SDS011;3632;42.724;23.298;2024-03-07T08:02:35;4.27;;;3.87;;
7181;SDS011;3632;42.724;23.298;2024-03-07T08:05:03;6.27;;;3.40;;
7181;SDS011;3632;42.724;23.298;2024-03-07T08:07:30;3.53;;;3.23;;
7181;SDS011;3632;42.724;23.298;2024-03-07T08:09:58;4.13;;;3.30;;
7181;SDS011;3632;42.724;23.298;2024-03-07T08:12:25;4.03;;;3.40;;
7181;SDS011;3632;42.724;23.298;2024-03-07T08:14:52;3.00;;;2.73;;
7181;SDS011;3632;42.724;23.298;2024-03-07T08:17:18;2.93;;;2.73;;
7181;SDS011;3632;42.724;23.298;2024-03-07T08:19:46;3.07;;;2.77;;
7181;SDS011;3632;42.724;23.298;2024-03-07T08:22:16;2.90;;;2.70;;
7181;SDS011;3632;42.724;23.298;2024-03-07T08:24:44;3.87;;;3.17;;
7181;SDS011;3632;42.724;23.298;2024-03-07T08:27:11;3.87;;;2.97;;
7181;SDS011;3632;42.724;23.298;2024-03-07T08:29:38;3.20;;;2.70;;
7181;SDS011;3632;42.724;23.298;2024-03-07T08:32:05;2.77;;;2.57;;
7181;SDS011;3632;42.724;23.298;2024-03-07T08:34:33;3.90;;;2.93;;
7181;SDS011;3632;42.724;23.298;2024-03-07T08:36:59;3.00;;;2.60;;
7181;SDS011;3632;42.724;23.298;2024-03-07T08:39:30;3.87;;;3.47;;
7181;SDS011;3632;42.724;23.298;2024-03-07T08:41:57;4.00;;;3.23;;
7181;SDS011;3632;42.724;23.298;2024-03-07T08:44:24;3.70;;;3.07;;
7181;SDS011;3632;42.724;23.298;2024-03-07T08:46:51;3.10;;;2.80;;
7181;SDS011;3632;42.724;23.298;2024-03-07T08:49:18;2.80;;;2.60;;
7181;SDS011;3632;42.724;23.298;2024-03-07T08:51:45;2.83;;;2.50;;
7181;SDS011;3632;42.724;23.298;2024-03-07T08:54:12;2.57;;;2.37;;
7181;SDS011;3632;42.724;23.298;2024-03-07T08:56:40;2.50;;;2.30;;
7181;SDS011;3632;42.724;23.298;2024-03-07T08:59:07;10.90;;;3.70;;
7181;SDS011;3632;42.724;23.298;2024-03-07T09:01:40;13.43;;;4.00;;
7181;SDS011;3632;42.724;23.298;2024-03-07T09:04:08;8.97;;;3.97;;
7181;SDS011;3632;42.724;23.298;2024-03-07T09:06:35;5.53;;;3.60;;
7181;SDS011;3632;42.724;23.298;2024-03-07T09:09:02;8.47;;;3.50;;
7181;SDS011;3632;42.724;23.298;2024-03-07T09:11:28;12.40;;;4.23;;
7181;SDS011;3632;42.724;23.298;2024-03-07T09:13:57;4.83;;;3.40;;
7181;SDS011;3632;42.724;23.298;2024-03-07T09:16:23;3.37;;;3.07;;
7181;SDS011;3632;42.724;23.298;2024-03-07T09:18:50;5.37;;;3.30;;
7181;SDS011;3632;42.724;23.298;2024-03-07T09:21:17;3.80;;;3.30;;
7181;SDS011;3632;42.724;23.298;2024-03-07T09:23:44;3.60;;;3.30;;
7181;SDS011;3632;42.724;23.298;2024-03-07T09:26:10;4.17;;;3.37;;
7181;SDS011;3632;42.724;23.298;2024-03-07T09:28:37;5.13;;;3.50;;
7181;SDS011;3632;42.724;23.298;2024-03-07T09:31:06;5.43;;;3.50;;
7181;SDS011;3632;42.724;23.298;2024-03-07T09:33:33;3.80;;;3.40;;
7181;SDS011;3632;42.724;23.298;2024-03-07T09:36:00;4.33;;;3.40;;
7181;SDS011;3632;42.724;23.298;2024-03-07T09:38:27;4.10;;;3.10;;
7181;SDS011;3632;42.724;23.298;2024-03-07T09:40:54;5.60;;;2.87;;
7181;SDS011;3632;42.724;23.298;2024-03-07T09:43:20;3.40;;;3.10;;
7181;SDS011;3632;42.724;23.298;2024-03-07T09:45:48;6.23;;;3.20;;
7181;SDS011;3632;42.724;23.298;2024-03-07T09:48:17;6.13;;;3.63;;
7181;SDS011;3632;42.724;23.298;2024-03-07T09:50:45;5.27;;;3.50;;
7181;SDS011;3632;42.724;23.298;2024-03-07T09:53:13;11.03;;;6.50;;
7181;SDS011;3632;42.724;23.298;2024-03-07T09:55:42;5.53;;;4.23;;
7181;SDS011;3632;42.724;23.298;2024-03-07T09:58:09;6.10;;;3.87;;
7181;SDS011;3632;42.724;23.298;2024-03-07T10:00:38;6.43;;;3.37;;
7181;SDS011;3632;42.724;23.298;2024-03-07T10:03:07;4.67;;;3.33;;
7181;SDS011;3632;42.724;23.298;2024-03-07T10:05:39;7.53;;;3.77;;
7181;SDS011;3632;42.724;23.298;2024-03-07T10:08:06;9.03;;;5.73;;
7181;SDS011;3632;42.724;23.298;2024-03-07T10:10:33;7.03;;;3.80;;
7181;SDS011;3632;42.724;23.298;2024-03-07T10:13:00;7.17;;;3.83;;
7181;SDS011;3632;42.724;23.298;2024-03-07T10:15:28;4.43;;;3.63;;
7181;SDS011;3632;42.724;23.298;2024-03-07T10:17:55;3.90;;;3.50;;
7181;SDS011;3632;42.724;23.298;2024-03-07T10:20:22;4.37;;;3.53;;
7181;SDS011;3632;42.724;23.298;2024-03-07T10:22:50;5.23;;;3.60;;
7181;SDS011;3632;42.724;23.298;2024-03-07T10:25:17;5.47;;;3.77;;
7181;SDS011;3632;42.724;23.298;2024-03-07T10:27:46;4.83;;;3.83;;
7181;SDS011;3632;42.724;23.298;2024-03-07T10:30:14;4.00;;;3.23;;
7181;SDS011;3632;42.724;23.298;2024-03-07T10:32:45;4.80;;;3.73;;
7181;SDS011;3632;42.724;23.298;2024-03-07T10:35:12;5.10;;;4.60;;
7181;SDS011;3632;42.724;23.298;2024-03-07T10:37:39;4.90;;;3.57;;
7181;SDS011;3632;42.724;23.298;2024-03-07T10:40:10;4.30;;;3.70;;
7181;SDS011;3632;42.724;23.298;2024-03-07T10:42:44;5.40;;;3.80;;
7181;SDS011;3632;42.724;23.298;2024-03-07T10:45:17;5.03;;;3.43;;
7181;SDS011;3632;42.724;23.298;2024-03-07T10:47:47;3.80;;;3.50;;
7181;SDS011;3632;42.724;23.298;2024-03-07T10:50:19;4.17;;;3.77;;
7181;SDS011;3632;42.724;23.298;2024-03-07T10:52:53;5.03;;;4.20;;
7181;SDS011;3632;42.724;23.298;2024-03-07T10:55:30;5.20;;;3.87;;
7181;SDS011;3632;42.724;23.298;2024-03-07T10:58:05;4.00;;;3.60;;
7181;SDS011;3632;42.724;23.298;2024-03-07T11:00:40;3.90;;;3.50;;
7181;SDS011;3632;42.724;23.298;2024-03-07T11:03:11;3.80;;;3.40;;
7181;SDS011;3632;42.724;23.298;2024-03-07T11:05:39;4.77;;;3.23;;
7181;SDS011;3632;42.724;23.298;2024-03-07T11:08:08;3.80;;;3.50;;
7181;SDS011;3632;42.724;23.298;2024-03-07T11:10:39;5.57;;;3.67;;
7181;SDS011;3632;42.724;23.298;2024-03-07T11:13:06;5.33;;;3.63;;
7181;SDS011;3632;42.724;23.298;2024-03-07T11:15:37;6.37;;;3.43;;
7181;SDS011;3632;42.724;23.298;2024-03-07T11:18:08;5.70;;;4.03;;
7181;SDS011;3632;42.724;23.298;2024-03-07T11:20:38;9.77;;;8.20;;
7181;SDS011;3632;42.724;23.298;2024-03-07T11:25:57;5.10;;;3.70;;
7181;SDS011;3632;42.724;23.298;2024-03-07T11:28:32;7.30;;;4.03;;
7181;SDS011;3632;42.724;23.298;2024-03-07T11:31:12;5.07;;;4.57;;
7181;SDS011;3632;42.724;23.298;2024-03-07T11:33:40;8.17;;;4.67;;
7181;SDS011;3632;42.724;23.298;2024-03-07T11:36:08;5.60;;;4.17;;
7181;SDS011;3632;42.724;23.298;2024-03-07T11:38:37;7.17;;;4.87;;
7181;SDS011;3632;42.724;23.298;2024-03-07T11:41:05;6.27;;;4.60;;
7181;SDS011;3632;42.724;23.298;2024-03-07T11:43:38;4.73;;;3.90;;
7181;SDS011;3632;42.724;23.298;2024-03-07T11:46:05;5.33;;;4.07;;
7181;SDS011;3632;42.724;23.298;2024-03-07T11:48:38;7.87;;;4.47;;
7181;SDS011;3632;42.724;23.298;2024-03-07T11:51:07;5.60;;;4.27;;
7181;SDS011;3632;42.724;23.298;2024-03-07T11:53:38;4.57;;;4.17;;
7181;SDS011;3632;42.724;23.298;2024-03-07T11:56:06;6.03;;;4.37;;
7181;SDS011;3632;42.724;23.298;2024-03-07T11:58:37;4.10;;;3.67;;
7181;SDS011;3632;42.724;23.298;2024-03-07T12:01:05;4.77;;;4.23;;
7181;SDS011;3632;42.724;23.298;2024-03-07T12:03:36;4.67;;;4.23;;
7181;SDS011;3632;42.724;23.298;2024-03-07T12:06:03;4.13;;;3.73;;
7181;SDS011;3632;42.724;23.298;2024-03-07T12:08:30;4.40;;;3.47;;
7181;SDS011;3632;42.724;23.298;2024-03-07T12:10:57;3.70;;;3.33;;
7181;SDS011;3632;42.724;23.298;2024-03-07T12:13:29;4.10;;;3.70;;
7181;SDS011;3632;42.724;23.298;2024-03-07T12:15:57;5.07;;;4.57;;
7181;SDS011;3632;42.724;23.298;2024-03-07T12:18:24;4.73;;;4.33;;
7181;SDS011;3632;42.724;23.298;2024-03-07T12:20:52;6.20;;;4.47;;
7181;SDS011;3632;42.724;23.298;2024-03-07T12:23:22;5.50;;;4.70;;
7181;SDS011;3632;42.724;23.298;2024-03-07T12:25:58;10.03;;;7.20;;
7181;SDS011;3632;42.724;23.298;2024-03-07T12:28:26;7.07;;;6.30;;
7181;SDS011;3632;42.724;23.298;2024-03-07T12:30:54;8.10;;;5.57;;
7181;SDS011;3632;42.724;23.298;2024-03-07T12:33:22;6.50;;;5.27;;
7181;SDS011;3632;42.724;23.298;2024-03-07T12:35:51;10.20;;;5.50;;
7181;SDS011;3632;42.724;23.298;2024-03-07T12:38:25;6.97;;;5.07;;
7181;SDS011;3632;42.724;23.298;2024-03-07T12:41:03;6.20;;;5.50;;
7181;SDS011;3632;42.724;23.298;2024-03-07T12:43:38;6.13;;;4.93;;
7181;SDS011;3632;42.724;23.298;2024-03-07T12:46:08;6.00;;;4.77;;
7181;SDS011;3632;42.724;23.298;2024-03-07T12:48:36;6.37;;;4.57;;
7181;SDS011;3632;42.724;23.298;2024-03-07T12:51:04;8.30;;;5.20;;
7181;SDS011;3632;42.724;23.298;2024-03-07T12:53:31;8.80;;;5.40;;
7181;SDS011;3632;42.724;23.298;2024-03-07T12:56:00;6.43;;;5.73;;
7181;SDS011;3632;42.724;23.298;2024-03-07T12:58:28;8.77;;;5.40;;
7181;SDS011;3632;42.724;23.298;2024-03-07T13:00:55;9.00;;;5.67;;
7181;SDS011;3632;42.724;23.298;2024-03-07T13:03:24;8.83;;;5.90;;
7181;SDS011;3632;42.724;23.298;2024-03-07T13:05:55;6.10;;;5.43;;
7181;SDS011;3632;42.724;23.298;2024-03-07T13:08:25;6.17;;;5.50;;
7181;SDS011;3632;42.724;23.298;2024-03-07T13:10:54;9.37;;;6.13;;
7181;SDS011;3632;42.724;23.298;2024-03-07T13:13:21;8.03;;;6.23;;
7181;SDS011;3632;42.724;23.298;2024-03-07T13:15:48;2.50;;;2.30;;
7181;SDS011;3632;42.724;23.298;2024-03-07T13:18:16;3.17;;;2.17;;
7181;SDS011;3632;42.724;23.298;2024-03-07T13:20:44;3.10;;;2.40;;
7181;SDS011;3632;42.724;23.298;2024-03-07T13:23:11;3.23;;;2.47;;
7181;SDS011;3632;42.724;23.298;2024-03-07T13:25:38;4.70;;;3.30;;
7181;SDS011;3632;42.724;23.298;2024-03-07T13:28:05;4.17;;;2.30;;
7181;SDS011;3632;42.724;23.298;2024-03-07T13:30:38;3.50;;;2.67;;
7181;SDS011;3632;42.724;23.298;2024-03-07T13:33:05;4.07;;;3.20;;
7181;SDS011;3632;42.724;23.298;2024-03-07T13:35:32;4.70;;;4.30;;
7181;SDS011;3632;42.724;23.298;2024-03-07T13:38:02;6.23;;;4.60;;
7181;SDS011;3632;42.724;23.298;2024-03-07T13:40:29;7.43;;;4.70;;
7181;SDS011;3632;42.724;23.298;2024-03-07T13:42:56;4.47;;;4.07;;
7181;SDS011;3632;42.724;23.298;2024-03-07T13:45:25;5.87;;;3.63;;
7181;SDS011;3632;42.724;23.298;2024-03-07T13:47:53;4.43;;;3.57;;
7181;SDS011;3632;42.724;23.298;2024-03-07T13:50:22;3.97;;;3.30;;
7181;SDS011;3632;42.724;23.298;2024-03-07T13:52:50;6.03;;;4.10;;
7181;SDS011;3632;42.724;23.298;2024-03-07T13:55:46;4.60;;;3.80;;
7181;SDS011;3632;42.724;23.298;2024-03-07T13:58:20;7.20;;;3.27;;
7181;SDS011;3632;42.724;23.298;2024-03-07T14:01:02;7.53;;;4.37;;
7181;SDS011;3632;42.724;23.298;2024-03-07T14:06:50;11.23;;;5.93;;
7181;SDS011;3632;42.724;23.298;2024-03-07T14:12:58;6.07;;;3.57;;
7181;SDS011;3632;42.724;23.298;2024-03-07T14:15:55;6.40;;;4.17;;
7181;SDS011;3632;42.724;23.298;2024-03-07T14:22:01;8.80;;;4.93;;
7181;SDS011;3632;42.724;23.298;2024-03-07T14:27:48;5.77;;;3.30;;
7181;SDS011;3632;42.724;23.298;2024-03-07T14:30:27;7.43;;;4.00;;
7181;SDS011;3632;42.724;23.298;2024-03-07T14:33:08;4.43;;;3.50;;
7181;SDS011;3632;42.724;23.298;2024-03-07T14:35:39;4.70;;;4.03;;
7181;SDS011;3632;42.724;23.298;2024-03-07T14:38:26;8.03;;;3.87;;
7181;SDS011;3632;42.724;23.298;2024-03-07T14:40:54;6.37;;;4.43;;
7181;SDS011;3632;42.724;23.298;2024-03-07T14:43:22;5.33;;;4.40;;
7181;SDS011;3632;42.724;23.298;2024-03-07T14:45:52;6.27;;;4.43;;
7181;SDS011;3632;42.724;23.298;2024-03-07T14:48:20;7.97;;;5.00;;
7181;SDS011;3632;42.724;23.298;2024-03-07T14:50:47;6.93;;;5.30;;
7181;SDS011;3632;42.724;23.298;2024-03-07T14:53:13;6.73;;;5.47;;
7181;SDS011;3632;42.724;23.298;2024-03-07T14:55:42;10.50;;;6.20;;
7181;SDS011;3632;42.724;23.298;2024-03-07T14:58:08;7.77;;;5.40;;
7181;SDS011;3632;42.724;23.298;2024-03-07T15:00:36;9.63;;;6.20;;
7181;SDS011;3632;42.724;23.298;2024-03-07T15:03:07;9.43;;;6.47;;
7181;SDS011;3632;42.724;23.298;2024-03-07T15:05:39;8.33;;;6.60;;
7181;SDS011;3632;42.724;23.298;2024-03-07T15:08:07;16.00;;;12.90;;
7181;SDS011;3632;42.724;23.298;2024-03-07T15:10:35;12.47;;;9.50;;
7181;SDS011;3632;42.724;23.298;2024-03-07T15:13:04;12.87;;;10.03;;
7181;SDS011;3632;42.724;23.298;2024-03-07T15:15:30;9.23;;;8.33;;
7181;SDS011;3632;42.724;23.298;2024-03-07T15:17:57;12.20;;;9.40;;